sensor_id;sensor_type;location;lat;lon;timestamp;P1;durP1;ratioP1;P2;durP2;ratioP2
9422;SDS011;65863;49.506;10.400;2023-10-31T00:01:17;1.93;;;1.83;;
9422;SDS011;65863;49.506;10.400;2023-10-31T00:04:01;2.00;;;1.70;;
9422;SDS011;65863;49.506;10.400;2023-10-31T00:06:45;1.80;;;1.67;;
9422;SDS011;65863;49.506;10.400;2023-10-31T00:09:29;1.50;;;1.40;;
9422;SDS011;65863;49.506;10.400;2023-10-31T00:12:13;1.93;;;1.43;;
9422;SDS011;65863;49.506;10.400;2023-10-31T00:14:57;1.47;;;1.37;;
9422;SDS011;65863;49.506;10.400;2023-10-31T00:17:41;1.30;;;1.20;;
9422;SDS011;65863;49.506;10.400;2023-10-31T00:20:25;4.27;;;1.40;;
9422;SDS011;65863;49.506;10.400;2023-10-31T00:23:09;2.50;;;1.40;;
9422;SDS011;65863;49.506;10.400;2023-10-31T00:25:53;1.40;;;1.23;;
9422;SDS011;65863;49.506;10.400;2023-10-31T00:28:37;1.20;;;1.20;;
9422;SDS011;65863;49.506;10.400;2023-10-31T00:31:21;1.50;;;1.40;;
9422;SDS011;65863;49.506;10.400;2023-10-31T00:34:05;1.07;;;1.07;;
9422;SDS011;65863;49.506;10.400;2023-10-31T00:36:49;1.30;;;1.20;;
9422;SDS011;65863;49.506;10.400;2023-10-31T00:39:33;1.00;;;1.00;;
9422;SDS011;65863;49.506;10.400;2023-10-31T00:42:17;0.93;;;0.93;;
9422;SDS011;65863;49.506;10.400;2023-10-31T00:45:01;0.83;;;0.83;;
9422;SDS011;65863;49.506;10.400;2023-10-31T00:47:45;1.13;;;0.70;;
9422;SDS011;65863;49.506;10.400;2023-10-31T00:50:30;1.77;;;0.70;;
9422;SDS011;65863;49.506;10.400;2023-10-31T00:53:14;0.63;;;0.63;;
9422;SDS011;65863;49.506;10.400;2023-10-31T00:55:59;1.07;;;0.70;;
9422;SDS011;65863;49.506;10.400;2023-10-31T00:58:43;0.73;;;0.70;;
9422;SDS011;65863;49.506;10.400;2023-10-31T01:09:25;0.53;;;0.50;;
9422;SDS011;65863;49.506;10.400;2023-10-31T01:12:09;0.60;;;0.60;;
9422;SDS011;65863;49.506;10.400;2023-10-31T01:14:54;0.93;;;0.60;;
9422;SDS011;65863;49.506;10.400;2023-10-31T01:17:39;0.73;;;0.73;;
9422;SDS011;65863;49.506;10.400;2023-10-31T01:20:23;0.83;;;0.40;;
9422;SDS011;65863;49.506;10.400;2023-10-31T01:23:06;0.87;;;0.80;;
9422;SDS011;65863;49.506;10.400;2023-10-31T01:25:50;0.70;;;0.60;;
9422;SDS011;65863;49.506;10.400;2023-10-31T01:28:34;0.67;;;0.67;;
9422;SDS011;65863;49.506;10.400;2023-10-31T01:31:19;0.87;;;0.70;;
9422;SDS011;65863;49.506;10.400;2023-10-31T01:34:03;0.67;;;0.67;;
9422;SDS011;65863;49.506;10.400;2023-10-31T01:36:46;0.43;;;0.43;;
9422;SDS011;65863;49.506;10.400;2023-10-31T01:39:30;0.63;;;0.63;;
9422;SDS011;65863;49.506;10.400;2023-10-31T01:42:15;0.60;;;0.60;;
9422;SDS011;65863;49.506;10.400;2023-10-31T01:44:59;0.83;;;0.60;;
9422;SDS011;65863;49.506;10.400;2023-10-31T01:47:43;1.97;;;0.70;;
9422;SDS011;65863;49.506;10.400;2023-10-31T01:50:31;0.67;;;0.67;;
9422;SDS011;65863;49.506;10.400;2023-10-31T01:53:15;0.70;;;0.70;;
9422;SDS011;65863;49.506;10.400;2023-10-31T01:55:59;0.60;;;0.60;;
9422;SDS011;65863;49.506;10.400;2023-10-31T01:58:45;0.60;;;0.60;;
9422;SDS011;65863;49.506;10.400;2023-10-31T02:01:32;1.17;;;0.93;;
9422;SDS011;65863;49.506;10.400;2023-10-31T02:04:19;0.80;;;0.80;;
9422;SDS011;65863;49.506;10.400;2023-10-31T02:07:03;1.13;;;0.93;;
9422;SDS011;65863;49.506;10.400;2023-10-31T02:09:47;0.70;;;0.70;;
9422;SDS011;65863;49.506;10.400;2023-10-31T02:12:35;0.83;;;0.80;;
9422;SDS011;65863;49.506;10.400;2023-10-31T02:15:20;0.73;;;0.73;;
9422;SDS011;65863;49.506;10.400;2023-10-31T02:18:07;0.60;;;0.60;;
9422;SDS011;65863;49.506;10.400;2023-10-31T02:20:52;0.93;;;0.83;;
9422;SDS011;65863;49.506;10.400;2023-10-31T02:23:35;0.70;;;0.70;;
9422;SDS011;65863;49.506;10.400;2023-10-31T02:26:19;0.60;;;0.60;;
9422;SDS011;65863;49.506;10.400;2023-10-31T02:29:03;0.70;;;0.70;;
9422;SDS011;65863;49.506;10.400;2023-10-31T02:31:48;0.60;;;0.60;;
9422;SDS011;65863;49.506;10.400;2023-10-31T02:34:31;0.50;;;0.50;;
9422;SDS011;65863;49.506;10.400;2023-10-31T02:37:15;1.90;;;0.60;;
9422;SDS011;65863;49.506;10.400;2023-10-31T02:39:59;0.57;;;0.57;;
9422;SDS011;65863;49.506;10.400;2023-10-31T02:42:44;0.83;;;0.83;;
9422;SDS011;65863;49.506;10.400;2023-10-31T02:45:28;0.60;;;0.60;;
9422;SDS011;65863;49.506;10.400;2023-10-31T02:48:12;0.63;;;0.63;;
9422;SDS011;65863;49.506;10.400;2023-10-31T02:50:57;2.93;;;0.80;;
9422;SDS011;65863;49.506;10.400;2023-10-31T02:53:41;0.60;;;0.60;;
9422;SDS011;65863;49.506;10.400;2023-10-31T02:56:25;0.87;;;0.83;;
9422;SDS011;65863;49.506;10.400;2023-10-31T02:59:10;0.50;;;0.50;;
9422;SDS011;65863;49.506;10.400;2023-10-31T03:01:55;0.70;;;0.70;;
9422;SDS011;65863;49.506;10.400;2023-10-31T03:04:40;0.80;;;0.77;;
9422;SDS011;65863;49.506;10.400;2023-10-31T03:07:24;0.93;;;0.60;;
9422;SDS011;65863;49.506;10.400;2023-10-31T03:10:09;0.80;;;0.70;;
9422;SDS011;65863;49.506;10.400;2023-10-31T03:12:53;0.70;;;0.70;;
9422;SDS011;65863;49.506;10.400;2023-10-31T03:15:37;1.77;;;1.00;;
9422;SDS011;65863;49.506;10.400;2023-10-31T03:18:21;1.47;;;0.70;;
9422;SDS011;65863;49.506;10.400;2023-10-31T03:21:05;1.43;;;0.77;;
9422;SDS011;65863;49.506;10.400;2023-10-31T03:23:50;0.60;;;0.60;;
9422;SDS011;65863;49.506;10.400;2023-10-31T03:26:34;0.63;;;0.63;;
9422;SDS011;65863;49.506;10.400;2023-10-31T03:29:18;1.07;;;1.03;;
9422;SDS011;65863;49.506;10.400;2023-10-31T03:32:03;1.00;;;0.70;;
9422;SDS011;65863;49.506;10.400;2023-10-31T03:34:48;2.63;;;0.97;;
9422;SDS011;65863;49.506;10.400;2023-10-31T03:37:33;0.83;;;0.70;;
9422;SDS011;65863;49.506;10.400;2023-10-31T03:40:16;4.17;;;0.70;;
9422;SDS011;65863;49.506;10.400;2023-10-31T03:43:00;0.90;;;0.90;;
9422;SDS011;65863;49.506;10.400;2023-10-31T03:45:45;0.80;;;0.80;;
9422;SDS011;65863;49.506;10.400;2023-10-31T03:48:33;1.20;;;0.70;;
9422;SDS011;65863;49.506;10.400;2023-10-31T03:51:17;0.80;;;0.80;;
9422;SDS011;65863;49.506;10.400;2023-10-31T03:54:01;1.23;;;0.90;;
9422;SDS011;65863;49.506;10.400;2023-10-31T03:56:45;1.27;;;0.80;;
9422;SDS011;65863;49.506;10.400;2023-10-31T03:59:30;0.80;;;0.80;;
9422;SDS011;65863;49.506;10.400;2023-10-31T04:02:14;1.47;;;1.00;;
9422;SDS011;65863;49.506;10.400;2023-10-31T04:04:59;0.90;;;0.90;;
9422;SDS011;65863;49.506;10.400;2023-10-31T04:07:43;1.13;;;1.03;;
9422;SDS011;65863;49.506;10.400;2023-10-31T04:10:27;5.30;;;1.43;;
9422;SDS011;65863;49.506;10.400;2023-10-31T04:13:11;1.37;;;1.00;;
9422;SDS011;65863;49.506;10.400;2023-10-31T04:15:55;1.10;;;1.00;;
9422;SDS011;65863;49.506;10.400;2023-10-31T04:18:39;1.20;;;1.10;;
9422;SDS011;65863;49.506;10.400;2023-10-31T04:21:23;2.00;;;0.90;;
9422;SDS011;65863;49.506;10.400;2023-10-31T04:24:07;0.87;;;0.87;;
9422;SDS011;65863;49.506;10.400;2023-10-31T04:26:51;3.00;;;0.90;;
9422;SDS011;65863;49.506;10.400;2023-10-31T04:29:35;1.00;;;0.90;;
9422;SDS011;65863;49.506;10.400;2023-10-31T04:32:19;3.00;;;0.93;;
9422;SDS011;65863;49.506;10.400;2023-10-31T04:35:03;1.63;;;0.90;;
9422;SDS011;65863;49.506;10.400;2023-10-31T04:37:48;1.97;;;1.00;;
9422;SDS011;65863;49.506;10.400;2023-10-31T04:40:32;0.67;;;0.67;;
9422;SDS011;65863;49.506;10.400;2023-10-31T04:43:15;0.97;;;0.73;;
9422;SDS011;65863;49.506;10.400;2023-10-31T04:45:59;0.80;;;0.80;;
9422;SDS011;65863;49.506;10.400;2023-10-31T04:48:43;0.77;;;0.77;;
9422;SDS011;65863;49.506;10.400;2023-10-31T04:51:27;0.80;;;0.70;;
9422;SDS011;65863;49.506;10.400;2023-10-31T04:54:16;1.10;;;0.90;;
9422;SDS011;65863;49.506;10.400;2023-10-31T04:57:00;4.90;;;0.83;;
9422;SDS011;65863;49.506;10.400;2023-10-31T04:59:44;0.60;;;0.60;;
9422;SDS011;65863;49.506;10.400;2023-10-31T05:02:29;3.17;;;0.83;;
9422;SDS011;65863;49.506;10.400;2023-10-31T05:05:12;1.60;;;1.07;;
9422;SDS011;65863;49.506;10.400;2023-10-31T05:07:58;0.40;;;0.40;;
9422;SDS011;65863;49.506;10.400;2023-10-31T05:10:42;0.77;;;0.60;;
9422;SDS011;65863;49.506;10.400;2023-10-31T05:13:27;1.27;;;0.90;;
9422;SDS011;65863;49.506;10.400;2023-10-31T05:16:11;1.60;;;0.73;;
9422;SDS011;65863;49.506;10.400;2023-10-31T05:18:58;1.77;;;0.90;;
9422;SDS011;65863;49.506;10.400;2023-10-31T05:21:47;1.63;;;0.77;;
9422;SDS011;65863;49.506;10.400;2023-10-31T05:24:31;1.40;;;0.80;;
9422;SDS011;65863;49.506;10.400;2023-10-31T05:27:15;4.00;;;0.77;;
9422;SDS011;65863;49.506;10.400;2023-10-31T05:29:59;1.20;;;1.10;;
9422;SDS011;65863;49.506;10.400;2023-10-31T05:32:43;0.97;;;0.90;;
9422;SDS011;65863;49.506;10.400;2023-10-31T05:35:28;0.97;;;0.97;;
9422;SDS011;65863;49.506;10.400;2023-10-31T05:38:12;0.60;;;0.60;;
9422;SDS011;65863;49.506;10.400;2023-10-31T05:40:56;0.87;;;0.70;;
9422;SDS011;65863;49.506;10.400;2023-10-31T05:43:40;0.80;;;0.77;;
9422;SDS011;65863;49.506;10.400;2023-10-31T05:46:25;1.20;;;0.80;;
9422;SDS011;65863;49.506;10.400;2023-10-31T05:49:10;2.40;;;0.70;;
9422;SDS011;65863;49.506;10.400;2023-10-31T05:51:54;0.93;;;0.80;;
9422;SDS011;65863;49.506;10.400;2023-10-31T05:54:38;0.60;;;0.60;;
9422;SDS011;65863;49.506;10.400;2023-10-31T05:57:22;0.90;;;0.90;;
9422;SDS011;65863;49.506;10.400;2023-10-31T06:00:06;3.00;;;1.43;;
9422;SDS011;65863;49.506;10.400;2023-10-31T06:02:55;2.10;;;0.70;;
9422;SDS011;65863;49.506;10.400;2023-10-31T06:05:39;0.80;;;0.70;;
9422;SDS011;65863;49.506;10.400;2023-10-31T06:08:23;2.10;;;0.90;;
9422;SDS011;65863;49.506;10.400;2023-10-31T06:11:13;0.73;;;0.73;;
9422;SDS011;65863;49.506;10.400;2023-10-31T06:13:59;2.00;;;0.70;;
9422;SDS011;65863;49.506;10.400;2023-10-31T06:16:43;0.73;;;0.73;;
9422;SDS011;65863;49.506;10.400;2023-10-31T06:19:27;0.70;;;0.70;;
9422;SDS011;65863;49.506;10.400;2023-10-31T06:22:11;0.87;;;0.87;;
9422;SDS011;65863;49.506;10.400;2023-10-31T06:24:55;1.90;;;0.90;;
9422;SDS011;65863;49.506;10.400;2023-10-31T06:27:41;1.57;;;0.80;;
9422;SDS011;65863;49.506;10.400;2023-10-31T06:30:26;0.83;;;0.80;;
9422;SDS011;65863;49.506;10.400;2023-10-31T06:33:09;0.80;;;0.80;;
9422;SDS011;65863;49.506;10.400;2023-10-31T06:35:54;6.97;;;0.77;;
9422;SDS011;65863;49.506;10.400;2023-10-31T06:38:37;1.20;;;1.13;;
9422;SDS011;65863;49.506;10.400;2023-10-31T06:41:21;0.77;;;0.77;;
9422;SDS011;65863;49.506;10.400;2023-10-31T06:44:05;1.13;;;0.67;;
9422;SDS011;65863;49.506;10.400;2023-10-31T06:46:49;0.83;;;0.83;;
9422;SDS011;65863;49.506;10.400;2023-10-31T06:49:33;0.47;;;0.47;;
9422;SDS011;65863;49.506;10.400;2023-10-31T06:52:17;0.73;;;0.73;;
9422;SDS011;65863;49.506;10.400;2023-10-31T06:55:01;0.60;;;0.60;;
9422;SDS011;65863;49.506;10.400;2023-10-31T06:57:45;1.33;;;0.80;;
9422;SDS011;65863;49.506;10.400;2023-10-31T07:00:29;1.57;;;0.80;;
9422;SDS011;65863;49.506;10.400;2023-10-31T07:03:13;3.47;;;0.90;;
9422;SDS011;65863;49.506;10.400;2023-10-31T07:05:59;0.73;;;0.63;;
9422;SDS011;65863;49.506;10.400;2023-10-31T07:08:43;0.90;;;0.57;;
9422;SDS011;65863;49.506;10.400;2023-10-31T07:11:27;0.60;;;0.60;;
9422;SDS011;65863;49.506;10.400;2023-10-31T07:14:14;1.17;;;0.60;;
9422;SDS011;65863;49.506;10.400;2023-10-31T07:16:58;0.77;;;0.70;;
9422;SDS011;65863;49.506;10.400;2023-10-31T07:19:42;1.70;;;1.13;;
9422;SDS011;65863;49.506;10.400;2023-10-31T07:22:26;1.27;;;0.60;;
9422;SDS011;65863;49.506;10.400;2023-10-31T07:25:10;2.60;;;0.60;;
9422;SDS011;65863;49.506;10.400;2023-10-31T07:27:54;0.77;;;0.77;;
9422;SDS011;65863;49.506;10.400;2023-10-31T07:30:39;1.30;;;0.93;;
9422;SDS011;65863;49.506;10.400;2023-10-31T07:33:23;2.30;;;0.70;;
9422;SDS011;65863;49.506;10.400;2023-10-31T07:36:07;1.57;;;0.57;;
9422;SDS011;65863;49.506;10.400;2023-10-31T07:38:51;0.80;;;0.60;;
9422;SDS011;65863;49.506;10.400;2023-10-31T07:41:35;0.60;;;0.60;;
9422;SDS011;65863;49.506;10.400;2023-10-31T07:44:18;1.07;;;0.70;;
9422;SDS011;65863;49.506;10.400;2023-10-31T07:47:03;1.50;;;0.97;;
9422;SDS011;65863;49.506;10.400;2023-10-31T07:49:47;4.43;;;0.87;;
9422;SDS011;65863;49.506;10.400;2023-10-31T07:52:32;0.60;;;0.60;;
9422;SDS011;65863;49.506;10.400;2023-10-31T07:55:16;4.03;;;0.80;;
9422;SDS011;65863;49.506;10.400;2023-10-31T07:58:00;0.80;;;0.70;;
9422;SDS011;65863;49.506;10.400;2023-10-31T08:00:44;0.67;;;0.50;;
9422;SDS011;65863;49.506;10.400;2023-10-31T08:03:28;2.57;;;1.00;;
9422;SDS011;65863;49.506;10.400;2023-10-31T08:06:13;1.57;;;0.73;;
9422;SDS011;65863;49.506;10.400;2023-10-31T08:08:57;0.87;;;0.67;;
9422;SDS011;65863;49.506;10.400;2023-10-31T08:11:41;2.20;;;0.70;;
9422;SDS011;65863;49.506;10.400;2023-10-31T08:14:25;0.63;;;0.50;;
9422;SDS011;65863;49.506;10.400;2023-10-31T08:17:09;0.60;;;0.60;;
9422;SDS011;65863;49.506;10.400;2023-10-31T08:19:53;1.33;;;1.00;;
9422;SDS011;65863;49.506;10.400;2023-10-31T08:22:37;1.47;;;0.77;;
9422;SDS011;65863;49.506;10.400;2023-10-31T08:25:22;2.97;;;1.27;;
9422;SDS011;65863;49.506;10.400;2023-10-31T08:28:06;0.80;;;0.70;;
9422;SDS011;65863;49.506;10.400;2023-10-31T08:30:50;1.83;;;0.70;;
9422;SDS011;65863;49.506;10.400;2023-10-31T08:33:34;1.10;;;0.70;;
9422;SDS011;65863;49.506;10.400;2023-10-31T08:36:18;0.60;;;0.60;;
9422;SDS011;65863;49.506;10.400;2023-10-31T08:39:02;0.77;;;0.77;;
9422;SDS011;65863;49.506;10.400;2023-10-31T08:42:05;2.57;;;0.90;;
9422;SDS011;65863;49.506;10.400;2023-10-31T08:44:49;0.77;;;0.60;;
9422;SDS011;65863;49.506;10.400;2023-10-31T08:47:33;1.97;;;0.80;;
9422;SDS011;65863;49.506;10.400;2023-10-31T08:50:17;0.83;;;0.63;;
9422;SDS011;65863;49.506;10.400;2023-10-31T08:53:01;0.50;;;0.50;;
9422;SDS011;65863;49.506;10.400;2023-10-31T08:55:45;2.43;;;0.70;;
9422;SDS011;65863;49.506;10.400;2023-10-31T08:58:29;1.30;;;0.70;;
9422;SDS011;65863;49.506;10.400;2023-10-31T09:01:13;1.10;;;0.70;;
9422;SDS011;65863;49.506;10.400;2023-10-31T09:03:57;1.17;;;0.90;;
9422;SDS011;65863;49.506;10.400;2023-10-31T09:06:42;1.13;;;0.93;;
9422;SDS011;65863;49.506;10.400;2023-10-31T09:09:26;1.13;;;1.10;;
9422;SDS011;65863;49.506;10.400;2023-10-31T09:12:10;0.60;;;0.60;;
9422;SDS011;65863;49.506;10.400;2023-10-31T09:14:54;1.03;;;0.70;;
9422;SDS011;65863;49.506;10.400;2023-10-31T09:17:38;0.77;;;0.73;;
9422;SDS011;65863;49.506;10.400;2023-10-31T09:20:22;1.00;;;0.87;;
9422;SDS011;65863;49.506;10.400;2023-10-31T09:23:06;0.90;;;0.90;;
9422;SDS011;65863;49.506;10.400;2023-10-31T09:25:50;2.13;;;0.80;;
9422;SDS011;65863;49.506;10.400;2023-10-31T09:28:35;1.70;;;1.00;;
9422;SDS011;65863;49.506;10.400;2023-10-31T09:31:20;0.80;;;0.77;;
9422;SDS011;65863;49.506;10.400;2023-10-31T09:34:04;1.17;;;1.03;;
9422;SDS011;65863;49.506;10.400;2023-10-31T09:36:48;0.70;;;0.70;;
9422;SDS011;65863;49.506;10.400;2023-10-31T09:39:32;2.10;;;1.33;;
9422;SDS011;65863;49.506;10.400;2023-10-31T09:42:16;0.90;;;0.90;;
9422;SDS011;65863;49.506;10.400;2023-10-31T09:45:00;1.47;;;0.83;;
9422;SDS011;65863;49.506;10.400;2023-10-31T09:47:45;0.77;;;0.77;;
9422;SDS011;65863;49.506;10.400;2023-10-31T09:50:29;1.43;;;0.80;;
9422;SDS011;65863;49.506;10.400;2023-10-31T09:53:14;0.60;;;0.60;;
9422;SDS011;65863;49.506;10.400;2023-10-31T09:55:59;3.40;;;2.00;;
9422;SDS011;65863;49.506;10.400;2023-10-31T09:58:44;1.90;;;1.70;;
9422;SDS011;65863;49.506;10.400;2023-10-31T10:01:28;6.10;;;1.90;;
9422;SDS011;65863;49.506;10.400;2023-10-31T10:04:12;2.83;;;1.30;;
9422;SDS011;65863;49.506;10.400;2023-10-31T10:07:00;3.23;;;0.90;;
9422;SDS011;65863;49.506;10.400;2023-10-31T10:09:45;1.63;;;1.00;;
9422;SDS011;65863;49.506;10.400;2023-10-31T10:12:30;1.33;;;1.00;;
9422;SDS011;65863;49.506;10.400;2023-10-31T10:15:15;2.50;;;1.00;;
9422;SDS011;65863;49.506;10.400;2023-10-31T10:17:59;3.30;;;1.77;;
9422;SDS011;65863;49.506;10.400;2023-10-31T10:20:56;1.40;;;1.10;;
9422;SDS011;65863;49.506;10.400;2023-10-31T10:23:41;1.10;;;1.00;;
9422;SDS011;65863;49.506;10.400;2023-10-31T10:26:25;1.60;;;1.00;;
9422;SDS011;65863;49.506;10.400;2023-10-31T10:29:09;2.83;;;1.33;;
9422;SDS011;65863;49.506;10.400;2023-10-31T10:31:53;2.50;;;1.00;;
9422;SDS011;65863;49.506;10.400;2023-10-31T10:34:37;1.20;;;1.10;;
9422;SDS011;65863;49.506;10.400;2023-10-31T10:37:22;1.93;;;1.00;;
9422;SDS011;65863;49.506;10.400;2023-10-31T10:40:07;1.67;;;1.13;;
9422;SDS011;65863;49.506;10.400;2023-10-31T10:42:52;0.87;;;0.80;;
9422;SDS011;65863;49.506;10.400;2023-10-31T10:45:43;1.73;;;1.00;;
9422;SDS011;65863;49.506;10.400;2023-10-31T10:48:31;2.00;;;1.30;;
9422;SDS011;65863;49.506;10.400;2023-10-31T10:51:29;1.43;;;0.90;;
9422;SDS011;65863;49.506;10.400;2023-10-31T10:54:26;1.80;;;1.27;;
9422;SDS011;65863;49.506;10.400;2023-10-31T11:00:19;1.47;;;0.80;;
9422;SDS011;65863;49.506;10.400;2023-10-31T11:03:08;1.37;;;0.93;;
9422;SDS011;65863;49.506;10.400;2023-10-31T11:05:53;1.80;;;0.90;;
9422;SDS011;65863;49.506;10.400;2023-10-31T11:08:37;1.23;;;1.10;;
9422;SDS011;65863;49.506;10.400;2023-10-31T11:11:22;1.20;;;1.10;;
9422;SDS011;65863;49.506;10.400;2023-10-31T11:14:06;2.10;;;1.10;;
9422;SDS011;65863;49.506;10.400;2023-10-31T11:16:52;2.40;;;1.23;;
9422;SDS011;65863;49.506;10.400;2023-10-31T11:19:38;2.80;;;1.13;;
9422;SDS011;65863;49.506;10.400;2023-10-31T11:22:23;2.03;;;1.20;;
9422;SDS011;65863;49.506;10.400;2023-10-31T11:25:07;2.27;;;1.00;;
9422;SDS011;65863;49.506;10.400;2023-10-31T11:27:53;5.77;;;1.20;;
9422;SDS011;65863;49.506;10.400;2023-10-31T11:30:41;1.50;;;1.00;;
9422;SDS011;65863;49.506;10.400;2023-10-31T11:33:29;4.83;;;1.30;;
9422;SDS011;65863;49.506;10.400;2023-10-31T11:36:13;1.80;;;1.10;;
9422;SDS011;65863;49.506;10.400;2023-10-31T11:39:12;1.93;;;0.93;;
9422;SDS011;65863;49.506;10.400;2023-10-31T11:41:57;1.03;;;0.93;;
9422;SDS011;65863;49.506;10.400;2023-10-31T11:44:54;1.47;;;0.80;;
9422;SDS011;65863;49.506;10.400;2023-10-31T11:47:48;1.27;;;1.00;;
9422;SDS011;65863;49.506;10.400;2023-10-31T11:50:33;1.30;;;1.20;;
9422;SDS011;65863;49.506;10.400;2023-10-31T11:53:18;4.17;;;1.20;;
9422;SDS011;65863;49.506;10.400;2023-10-31T11:56:04;1.83;;;1.17;;
9422;SDS011;65863;49.506;10.400;2023-10-31T11:58:55;4.53;;;1.37;;
9422;SDS011;65863;49.506;10.400;2023-10-31T12:01:46;3.70;;;1.30;;
9422;SDS011;65863;49.506;10.400;2023-10-31T12:04:30;1.57;;;1.23;;
9422;SDS011;65863;49.506;10.400;2023-10-31T12:07:14;1.60;;;1.27;;
9422;SDS011;65863;49.506;10.400;2023-10-31T12:09:58;2.57;;;1.13;;
9422;SDS011;65863;49.506;10.400;2023-10-31T12:12:42;2.77;;;1.03;;
9422;SDS011;65863;49.506;10.400;2023-10-31T12:15:26;1.17;;;1.07;;
9422;SDS011;65863;49.506;10.400;2023-10-31T12:18:10;2.27;;;1.00;;
9422;SDS011;65863;49.506;10.400;2023-10-31T12:20:55;1.93;;;0.90;;
9422;SDS011;65863;49.506;10.400;2023-10-31T12:23:39;4.40;;;1.10;;
9422;SDS011;65863;49.506;10.400;2023-10-31T12:26:23;2.27;;;1.10;;
9422;SDS011;65863;49.506;10.400;2023-10-31T12:29:11;4.30;;;1.27;;
9422;SDS011;65863;49.506;10.400;2023-10-31T12:31:56;3.60;;;1.40;;
9422;SDS011;65863;49.506;10.400;2023-10-31T12:34:43;5.33;;;1.07;;
9422;SDS011;65863;49.506;10.400;2023-10-31T12:37:27;1.20;;;1.10;;
9422;SDS011;65863;49.506;10.400;2023-10-31T12:40:11;2.57;;;0.90;;
9422;SDS011;65863;49.506;10.400;2023-10-31T12:43:00;3.03;;;1.00;;
9422;SDS011;65863;49.506;10.400;2023-10-31T12:45:46;2.67;;;1.10;;
9422;SDS011;65863;49.506;10.400;2023-10-31T12:48:30;1.70;;;0.93;;
9422;SDS011;65863;49.506;10.400;2023-10-31T12:51:14;1.73;;;0.90;;
9422;SDS011;65863;49.506;10.400;2023-10-31T12:53:58;3.80;;;1.13;;
9422;SDS011;65863;49.506;10.400;2023-10-31T12:56:42;2.47;;;1.00;;
9422;SDS011;65863;49.506;10.400;2023-10-31T12:59:26;3.07;;;1.30;;
9422;SDS011;65863;49.506;10.400;2023-10-31T13:02:11;2.03;;;0.97;;
9422;SDS011;65863;49.506;10.400;2023-10-31T13:05:07;2.27;;;1.00;;
9422;SDS011;65863;49.506;10.400;2023-10-31T13:07:56;4.10;;;1.37;;
9422;SDS011;65863;49.506;10.400;2023-10-31T13:10:41;1.80;;;1.10;;
9422;SDS011;65863;49.506;10.400;2023-10-31T13:13:26;1.90;;;1.20;;
9422;SDS011;65863;49.506;10.400;2023-10-31T13:16:10;2.33;;;1.00;;
9422;SDS011;65863;49.506;10.400;2023-10-31T13:18:54;4.20;;;1.10;;
9422;SDS011;65863;49.506;10.400;2023-10-31T13:21:38;1.97;;;1.00;;
9422;SDS011;65863;49.506;10.400;2023-10-31T13:24:22;1.60;;;1.00;;
9422;SDS011;65863;49.506;10.400;2023-10-31T13:27:06;1.87;;;1.33;;
9422;SDS011;65863;49.506;10.400;2023-10-31T13:29:51;1.83;;;1.07;;
9422;SDS011;65863;49.506;10.400;2023-10-31T13:32:35;3.23;;;1.17;;
9422;SDS011;65863;49.506;10.400;2023-10-31T13:35:19;4.77;;;1.77;;
9422;SDS011;65863;49.506;10.400;2023-10-31T13:38:03;2.93;;;1.30;;
9422;SDS011;65863;49.506;10.400;2023-10-31T13:40:48;2.13;;;1.10;;
9422;SDS011;65863;49.506;10.400;2023-10-31T13:43:32;2.37;;;1.40;;
9422;SDS011;65863;49.506;10.400;2023-10-31T13:46:16;1.27;;;1.00;;
9422;SDS011;65863;49.506;10.400;2023-10-31T13:48:59;1.17;;;0.80;;
9422;SDS011;65863;49.506;10.400;2023-10-31T13:51:43;1.53;;;0.80;;
9422;SDS011;65863;49.506;10.400;2023-10-31T13:54:27;2.30;;;1.20;;
9422;SDS011;65863;49.506;10.400;2023-10-31T13:57:11;2.57;;;0.90;;
9422;SDS011;65863;49.506;10.400;2023-10-31T13:59:55;1.70;;;1.10;;
9422;SDS011;65863;49.506;10.400;2023-10-31T14:02:39;4.53;;;1.43;;
9422;SDS011;65863;49.506;10.400;2023-10-31T14:05:24;2.67;;;1.23;;
9422;SDS011;65863;49.506;10.400;2023-10-31T14:08:07;5.47;;;1.33;;
9422;SDS011;65863;49.506;10.400;2023-10-31T14:10:52;4.43;;;1.10;;
9422;SDS011;65863;49.506;10.400;2023-10-31T14:13:38;1.27;;;1.10;;
9422;SDS011;65863;49.506;10.400;2023-10-31T14:16:22;6.70;;;1.20;;
9422;SDS011;65863;49.506;10.400;2023-10-31T14:19:07;2.57;;;1.10;;
9422;SDS011;65863;49.506;10.400;2023-10-31T14:21:51;2.03;;;1.13;;
9422;SDS011;65863;49.506;10.400;2023-10-31T14:24:36;3.60;;;0.90;;
9422;SDS011;65863;49.506;10.400;2023-10-31T14:27:20;13.77;;;1.77;;
9422;SDS011;65863;49.506;10.400;2023-10-31T14:30:04;4.23;;;1.10;;
9422;SDS011;65863;49.506;10.400;2023-10-31T14:32:49;2.37;;;0.90;;
9422;SDS011;65863;49.506;10.400;2023-10-31T14:35:33;1.97;;;1.20;;
9422;SDS011;65863;49.506;10.400;2023-10-31T14:38:18;2.63;;;0.80;;
9422;SDS011;65863;49.506;10.400;2023-10-31T14:41:03;3.90;;;1.30;;
9422;SDS011;65863;49.506;10.400;2023-10-31T14:43:47;3.00;;;1.07;;
9422;SDS011;65863;49.506;10.400;2023-10-31T14:46:31;3.23;;;1.20;;
9422;SDS011;65863;49.506;10.400;2023-10-31T14:49:16;5.50;;;1.33;;
9422;SDS011;65863;49.506;10.400;2023-10-31T14:52:00;5.80;;;1.40;;
9422;SDS011;65863;49.506;10.400;2023-10-31T14:54:44;4.17;;;1.17;;
9422;SDS011;65863;49.506;10.400;2023-10-31T14:57:28;3.60;;;1.90;;
9422;SDS011;65863;49.506;10.400;2023-10-31T15:00:12;4.10;;;1.20;;
9422;SDS011;65863;49.506;10.400;2023-10-31T15:02:57;4.73;;;1.47;;
9422;SDS011;65863;49.506;10.400;2023-10-31T15:05:41;3.97;;;1.13;;
9422;SDS011;65863;49.506;10.400;2023-10-31T15:08:25;1.83;;;1.00;;
9422;SDS011;65863;49.506;10.400;2023-10-31T15:11:09;6.67;;;1.40;;
9422;SDS011;65863;49.506;10.400;2023-10-31T15:13:53;2.73;;;1.20;;
9422;SDS011;65863;49.506;10.400;2023-10-31T15:16:38;5.33;;;1.40;;
9422;SDS011;65863;49.506;10.400;2023-10-31T15:19:21;4.60;;;1.10;;
9422;SDS011;65863;49.506;10.400;2023-10-31T15:22:05;6.07;;;1.93;;
9422;SDS011;65863;49.506;10.400;2023-10-31T15:24:49;1.90;;;1.10;;
9422;SDS011;65863;49.506;10.400;2023-10-31T15:27:33;2.37;;;1.10;;
9422;SDS011;65863;49.506;10.400;2023-10-31T15:30:18;2.20;;;1.10;;
9422;SDS011;65863;49.506;10.400;2023-10-31T15:33:02;2.83;;;1.03;;
9422;SDS011;65863;49.506;10.400;2023-10-31T15:35:46;3.53;;;1.30;;
9422;SDS011;65863;49.506;10.400;2023-10-31T15:38:30;5.07;;;1.43;;
9422;SDS011;65863;49.506;10.400;2023-10-31T15:41:14;1.77;;;0.90;;
9422;SDS011;65863;49.506;10.400;2023-10-31T15:43:58;2.23;;;0.90;;
9422;SDS011;65863;49.506;10.400;2023-10-31T15:46:42;1.10;;;0.90;;
9422;SDS011;65863;49.506;10.400;2023-10-31T15:49:26;2.47;;;1.10;;
9422;SDS011;65863;49.506;10.400;2023-10-31T15:52:10;6.53;;;1.30;;
9422;SDS011;65863;49.506;10.400;2023-10-31T15:54:54;2.37;;;0.90;;
9422;SDS011;65863;49.506;10.400;2023-10-31T15:57:38;3.63;;;1.20;;
9422;SDS011;65863;49.506;10.400;2023-10-31T16:00:22;3.40;;;1.37;;
9422;SDS011;65863;49.506;10.400;2023-10-31T16:03:07;2.63;;;1.33;;
9422;SDS011;65863;49.506;10.400;2023-10-31T16:05:52;4.37;;;1.20;;
9422;SDS011;65863;49.506;10.400;2023-10-31T16:08:36;1.37;;;1.10;;
9422;SDS011;65863;49.506;10.400;2023-10-31T16:11:23;2.57;;;1.10;;
9422;SDS011;65863;49.506;10.400;2023-10-31T16:14:07;2.43;;;1.30;;
9422;SDS011;65863;49.506;10.400;2023-10-31T16:16:51;6.60;;;1.50;;
9422;SDS011;65863;49.506;10.400;2023-10-31T16:19:35;4.33;;;1.27;;
9422;SDS011;65863;49.506;10.400;2023-10-31T16:22:19;5.10;;;1.83;;
9422;SDS011;65863;49.506;10.400;2023-10-31T16:25:03;3.50;;;1.20;;
9422;SDS011;65863;49.506;10.400;2023-10-31T16:27:48;2.93;;;1.00;;
9422;SDS011;65863;49.506;10.400;2023-10-31T16:30:31;3.60;;;1.33;;
9422;SDS011;65863;49.506;10.400;2023-10-31T16:33:15;3.70;;;1.30;;
9422;SDS011;65863;49.506;10.400;2023-10-31T16:35:59;3.17;;;1.10;;
9422;SDS011;65863;49.506;10.400;2023-10-31T16:38:44;5.57;;;1.10;;
9422;SDS011;65863;49.506;10.400;2023-10-31T16:41:27;3.30;;;1.43;;
9422;SDS011;65863;49.506;10.400;2023-10-31T16:44:12;4.27;;;1.63;;